Time;durP1;ratioP1;P1;durP2;ratioP2;P2;SDS_P1;SDS_P2;PMS_P1;PMS_P2;Temp;Humidity;BMP_temperature;BMP_pressure;BME280_temperature;BME280_humidity;BME280_pressure;Samples;Min_cycle;Max_cycle;Signal;HPM_P1;HPM_P2
2023/03/07 00:00:43;;;;;;;7.50;3.95;;;3.00;99.90;;;;;;4954673;28;20197;-62
2023/03/07 00:03:13;;;;;;;6.63;3.70;;;2.90;99.90;;;;;;4954777;28;20291;-62
2023/03/07 00:05:42;;;;;;;3.92;2.78;;;2.90;99.90;;;;;;4962121;28;20288;-62
2023/03/07 00:08:10;;;;;;;5.68;4.47;;;2.90;99.90;;;;;;4959270;28;20332;-62
2023/03/07 00:10:38;;;;;;;5.65;3.10;;;2.90;99.90;;;;;;4961236;28;20205;-62
2023/03/07 00:13:05;;;;;;;3.85;3.03;;;2.90;99.90;;;;;;4963943;28;20227;-61
2023/03/07 00:15:33;;;;;;;5.85;3.83;;;2.90;99.90;;;;;;4963609;28;20246;-62
2023/03/07 00:18:01;;;;;;;9.80;5.38;;;2.80;99.90;;;;;;4960569;28;20662;-62
2023/03/07 00:20:30;;;;;;;6.25;4.25;;;2.90;99.90;;;;;;4960049;28;20205;-62
2023/03/07 00:22:58;;;;;;;8.50;4.75;;;2.90;99.90;;;;;;4952825;28;20209;-62
2023/03/07 00:25:26;;;;;;;6.47;4.57;;;3.00;99.90;;;;;;4960887;28;20299;-63
2023/03/07 00:27:54;;;;;;;7.20;4.85;;;3.00;99.90;;;;;;4963118;28;20717;-63
2023/03/07 00:30:22;;;;;;;4.38;3.05;;;2.90;99.90;;;;;;4955747;28;20290;-62
2023/03/07 00:32:50;;;;;;;6.18;3.75;;;2.90;99.90;;;;;;4952302;28;20213;-62
2023/03/07 00:35:18;;;;;;;5.70;3.08;;;2.90;99.90;;;;;;4949177;28;20232;-62
2023/03/07 00:37:47;;;;;;;8.82;4.97;;;2.90;99.90;;;;;;4949447;28;20225;-62
2023/03/07 00:40:15;;;;;;;4.50;3.78;;;2.90;99.90;;;;;;4948310;28;20300;-62
2023/03/07 00:42:43;;;;;;;7.85;5.35;;;3.00;99.90;;;;;;4950008;29;20301;-62
2023/03/07 00:45:12;;;;;;;4.95;3.83;;;3.00;99.90;;;;;;4950950;28;20593;-62
2023/03/07 00:47:40;;;;;;;8.15;5.03;;;3.10;99.90;;;;;;4962559;28;20224;-62
2023/03/07 00:50:08;;;;;;;5.55;4.35;;;3.20;99.90;;;;;;4957102;28;20230;-62
2023/03/07 00:52:36;;;;;;;7.50;4.80;;;3.10;99.90;;;;;;4953653;28;20696;-62
2023/03/07 00:55:07;;;;;;;11.15;4.70;;;3.10;99.90;;;;;;4967595;28;20311;-62
2023/03/07 00:57:34;;;;;;;8.77;4.95;;;3.20;99.90;;;;;;4954270;28;20324;-61
2023/03/07 01:00:03;;;;;;;9.00;5.88;;;3.30;99.90;;;;;;4956288;28;20235;-60
2023/03/07 01:02:31;;;;;;;9.27;5.20;;;3.30;99.90;;;;;;4958937;28;20237;-61
2023/03/07 01:04:59;;;;;;;7.05;5.45;;;3.20;99.90;;;;;;4967036;28;20736;-61
2023/03/07 01:07:27;;;;;;;6.30;4.20;;;3.10;99.90;;;;;;4959225;28;20236;-61
2023/03/07 01:09:55;;;;;;;7.25;5.55;;;3.10;99.90;;;;;;4962046;28;20277;-61
2023/03/07 01:12:24;;;;;;;7.32;4.05;;;3.20;99.90;;;;;;4955425;28;20676;-61
2023/03/07 01:14:52;;;;;;;7.07;4.55;;;3.30;99.90;;;;;;4963598;28;20225;-61
2023/03/07 01:17:20;;;;;;;7.50;4.45;;;3.30;99.90;;;;;;4961662;28;20317;-61
2023/03/07 01:19:48;;;;;;;7.00;5.30;;;3.20;99.90;;;;;;4965377;28;20203;-61
2023/03/07 01:22:16;;;;;;;6.95;4.53;;;3.20;99.90;;;;;;4962470;28;20228;-61
2023/03/07 01:24:44;;;;;;;8.88;4.72;;;3.20;99.90;;;;;;4957308;28;20209;-62
2023/03/07 01:27:11;;;;;;;6.70;3.92;;;3.20;99.90;;;;;;4956622;28;20308;-61
2023/03/07 01:29:41;;;;;;;10.10;7.10;;;3.20;99.90;;;;;;4952741;28;20740;-62
2023/03/07 01:32:09;;;;;;;6.60;4.70;;;3.30;99.90;;;;;;4959024;28;20209;-61
2023/03/07 01:34:37;;;;;;;8.02;6.20;;;3.30;99.90;;;;;;4952060;28;20606;-60
2023/03/07 01:37:05;;;;;;;5.93;4.90;;;3.30;99.90;;;;;;4951925;28;20216;-61
2023/03/07 01:39:32;;;;;;;9.63;6.10;;;3.30;99.90;;;;;;4952911;28;20697;-62
2023/03/07 01:42:00;;;;;;;6.32;4.97;;;3.40;99.90;;;;;;4949089;28;20200;-61
2023/03/07 01:44:28;;;;;;;4.70;3.38;;;3.40;99.90;;;;;;4953115;28;20714;-62
2023/03/07 01:46:59;;;;;;;4.80;4.00;;;3.40;99.90;;;;;;4955886;28;20216;-62
2023/03/07 01:49:29;;;;;;;7.20;4.65;;;3.40;99.90;;;;;;4953810;28;20213;-62
2023/03/07 01:52:03;;;;;;;5.97;4.13;;;3.40;99.90;;;;;;4953391;28;20217;-62
2023/03/07 01:54:33;;;;;;;6.95;4.25;;;3.50;99.90;;;;;;4957565;28;20301;-62
2023/03/07 01:57:03;;;;;;;6.78;4.78;;;3.60;99.90;;;;;;4959278;28;20214;-61
2023/03/07 01:59:33;;;;;;;8.45;4.65;;;3.60;99.90;;;;;;4956158;28;20694;-62
2023/03/07 02:02:06;;;;;;;6.35;4.07;;;3.50;99.90;;;;;;4952226;28;20209;-61
2023/03/07 02:04:40;;;;;;;4.65;3.40;;;3.40;99.90;;;;;;4955213;28;20200;-62
2023/03/07 02:07:10;;;;;;;5.82;4.05;;;3.40;99.90;;;;;;4956321;28;20205;-62
2023/03/07 02:09:38;;;;;;;7.38;4.35;;;3.40;99.90;;;;;;4961493;28;20316;-61
2023/03/07 02:12:07;;;;;;;5.30;3.42;;;3.40;99.90;;;;;;4951562;28;20290;-61
2023/03/07 02:14:35;;;;;;;5.30;3.88;;;3.40;99.90;;;;;;4957312;28;20230;-61
2023/03/07 02:17:04;;;;;;;6.18;3.95;;;3.50;99.90;;;;;;4956113;28;20210;-62
2023/03/07 02:19:52;;;;;;;4.88;3.63;;;3.50;99.90;;;;;;4953491;28;20288;-61
2023/03/07 02:22:20;;;;;;;6.70;5.05;;;3.40;99.90;;;;;;4945548;28;20294;-61
2023/03/07 02:24:52;;;;;;;4.40;3.38;;;3.40;99.90;;;;;;4950893;28;20223;-61
2023/03/07 02:27:24;;;;;;;5.15;3.35;;;3.50;99.90;;;;;;4955913;28;20230;-61
2023/03/07 02:29:52;;;;;;;5.95;4.30;;;3.60;99.90;;;;;;4950903;28;20304;-62
2023/03/07 02:32:20;;;;;;;5.22;4.50;;;3.60;99.90;;;;;;4944623;29;20214;-62
2023/03/07 02:34:48;;;;;;;5.00;4.00;;;3.60;99.90;;;;;;4949122;28;20268;-63
2023/03/07 02:37:19;;;;;;;5.53;4.70;;;3.60;99.90;;;;;;4948449;28;20229;-62
2023/03/07 02:39:48;;;;;;;4.72;3.33;;;3.60;99.90;;;;;;4951146;28;20263;-62
2023/03/07 02:42:19;;;;;;;5.78;4.78;;;3.70;99.90;;;;;;4951560;28;20675;-62
2023/03/07 02:44:56;;;;;;;5.28;3.15;;;3.60;99.90;;;;;;4957618;28;20211;-61
2023/03/07 02:47:24;;;;;;;3.92;3.28;;;3.60;99.90;;;;;;4954772;28;20712;-62
2023/03/07 02:49:52;;;;;;;4.63;3.25;;;3.50;99.90;;;;;;4960734;28;20557;-62
2023/03/07 02:52:21;;;;;;;4.90;4.10;;;3.50;99.90;;;;;;4951770;28;20209;-62
2023/03/07 02:54:49;;;;;;;7.65;4.25;;;3.50;99.90;;;;;;4953997;28;20221;-61
2023/03/07 02:57:18;;;;;;;3.03;2.65;;;3.50;99.90;;;;;;4956061;28;20228;-62
2023/03/07 02:59:47;;;;;;;3.92;3.45;;;3.60;99.90;;;;;;4962254;28;20206;-61
2023/03/07 03:02:16;;;;;;;4.97;3.15;;;3.60;99.90;;;;;;4959815;28;20691;-61
2023/03/07 03:04:44;;;;;;;3.72;2.53;;;3.50;99.90;;;;;;4954927;28;20204;-62
2023/03/07 03:07:12;;;;;;;3.75;3.03;;;3.50;99.90;;;;;;4952705;28;20239;-62
2023/03/07 03:09:39;;;;;;;5.40;2.97;;;3.60;99.90;;;;;;4948173;28;20226;-62
2023/03/07 03:12:08;;;;;;;3.33;2.92;;;3.60;99.90;;;;;;4952697;28;20234;-62
2023/03/07 03:14:36;;;;;;;3.20;2.50;;;3.50;99.90;;;;;;4951935;28;20208;-62
2023/03/07 03:17:05;;;;;;;3.90;2.78;;;3.60;99.90;;;;;;4951530;28;20228;-62
2023/03/07 03:19:33;;;;;;;3.17;2.25;;;3.50;99.90;;;;;;4954899;28;20203;-62
2023/03/07 03:22:01;;;;;;;4.95;2.45;;;3.50;99.90;;;;;;4959846;28;20745;-63
2023/03/07 03:24:29;;;;;;;2.50;1.65;;;3.50;99.90;;;;;;4950232;29;20209;-62
2023/03/07 03:26:57;;;;;;;1.92;1.60;;;3.50;99.90;;;;;;4952612;28;20287;-62
2023/03/07 03:29:26;;;;;;;3.35;2.08;;;3.40;99.90;;;;;;4968556;23;20858;-72
2023/03/07 03:31:53;;;;;;;3.80;3.17;;;3.50;99.90;;;;;;4940779;28;20213;-72
2023/03/07 03:34:23;;;;;;;4.80;3.53;;;3.50;99.90;;;;;;4940342;28;20258;-72
2023/03/07 03:36:51;;;;;;;5.60;2.40;;;3.50;99.90;;;;;;4939361;28;20752;-70
2023/03/07 03:39:19;;;;;;;2.20;2.00;;;3.60;99.90;;;;;;4939885;28;20306;-69
2023/03/07 03:41:47;;;;;;;2.35;2.15;;;3.70;99.90;;;;;;4944695;29;20210;-73
2023/03/07 03:44:15;;;;;;;2.15;1.95;;;3.60;99.90;;;;;;4944255;28;20228;-72
2023/03/07 03:46:42;;;;;;;2.42;2.22;;;3.70;99.90;;;;;;4941314;28;20596;-73
2023/03/07 03:49:12;;;;;;;1.88;1.60;;;3.60;99.90;;;;;;4940459;28;20227;-72
2023/03/07 03:51:41;;;;;;;2.88;2.35;;;3.50;99.90;;;;;;4937357;28;20214;-72
2023/03/07 03:54:09;;;;;;;2.33;2.03;;;3.50;99.90;;;;;;4936941;28;20209;-71
2023/03/07 03:56:36;;;;;;;2.58;2.20;;;3.50;99.90;;;;;;4935795;28;20223;-72
2023/03/07 03:59:04;;;;;;;3.70;2.22;;;3.50;99.90;;;;;;4951009;28;20228;-72
2023/03/07 04:01:32;;;;;;;2.05;1.85;;;3.60;99.90;;;;;;4960750;28;20297;-72
2023/03/07 04:04:01;;;;;;;2.97;2.60;;;3.60;99.90;;;;;;4952681;28;20290;-73
2023/03/07 04:06:30;;;;;;;6.45;4.57;;;3.60;99.90;;;;;;4957876;28;20199;-72
2023/03/07 04:09:01;;;;;;;2.47;2.28;;;3.60;99.90;;;;;;4947873;28;20226;-72
2023/03/07 04:11:29;;;;;;;3.28;2.63;;;3.60;99.90;;;;;;4940638;28;20219;-70
2023/03/07 04:13:58;;;;;;;2.83;2.33;;;3.60;99.90;;;;;;4935327;28;20215;-72
2023/03/07 04:16:25;;;;;;;2.63;1.98;;;3.60;99.90;;;;;;4937715;28;20237;-71
2023/03/07 04:18:54;;;;;;;2.63;2.15;;;3.60;99.90;;;;;;4947555;28;20273;-73
2023/03/07 04:21:22;;;;;;;3.25;2.95;;;3.60;99.90;;;;;;4944218;28;20224;-71
2023/03/07 04:23:54;;;;;;;4.38;3.33;;;3.70;99.90;;;;;;4940229;28;20935;-73
2023/03/07 04:26:23;;;;;;;4.05;2.95;;;3.80;99.90;;;;;;4940999;28;20205;-73
2023/03/07 04:28:51;;;;;;;3.95;2.42;;;3.80;99.90;;;;;;4940785;28;20748;-72
2023/03/07 04:31:21;;;;;;;6.38;3.28;;;3.90;99.90;;;;;;4943316;28;20602;-73
2023/03/07 04:33:50;;;;;;;2.33;2.13;;;3.90;99.90;;;;;;4951630;28;20265;-72
2023/03/07 04:36:18;;;;;;;1.98;1.70;;;3.90;99.90;;;;;;4942540;28;20241;-73
2023/03/07 04:38:47;;;;;;;6.50;3.38;;;3.80;99.90;;;;;;4946779;28;20275;-72
2023/03/07 04:41:18;;;;;;;3.08;2.38;;;3.80;99.90;;;;;;4941367;28;20212;-71
2023/03/07 04:43:48;;;;;;;4.20;3.40;;;3.80;99.90;;;;;;4945168;29;20215;-71
2023/03/07 04:46:17;;;;;;;4.38;2.72;;;3.70;99.90;;;;;;4950126;28;20292;-72
2023/03/07 04:48:46;;;;;;;4.55;3.47;;;3.70;99.90;;;;;;4949190;28;20243;-72
2023/03/07 04:51:14;;;;;;;3.08;2.47;;;3.70;99.90;;;;;;4947375;28;20216;-73
2023/03/07 04:53:42;;;;;;;3.70;2.80;;;3.70;99.90;;;;;;4945425;28;20988;-72
2023/03/07 04:56:10;;;;;;;3.22;2.80;;;3.70;99.90;;;;;;4945167;28;20605;-72
2023/03/07 04:58:38;;;;;;;3.90;2.85;;;3.70;99.90;;;;;;4940856;29;20229;-73
2023/03/07 05:01:08;;;;;;;4.65;4.22;;;3.70;99.90;;;;;;4960708;28;20266;-72
2023/03/07 05:03:36;;;;;;;2.72;2.22;;;3.60;99.90;;;;;;4957731;28;20214;-73
2023/03/07 05:06:06;;;;;;;4.85;3.67;;;3.60;99.90;;;;;;4942662;28;20688;-71
2023/03/07 05:08:35;;;;;;;7.90;3.92;;;3.50;99.90;;;;;;4945335;28;20659;-72
2023/03/07 05:11:03;;;;;;;5.70;4.40;;;3.50;99.90;;;;;;4942752;28;20289;-72
2023/03/07 05:13:31;;;;;;;4.57;3.35;;;3.60;99.90;;;;;;4953944;28;20393;-72
2023/03/07 05:15:59;;;;;;;3.90;3.45;;;3.70;99.90;;;;;;4958187;28;20211;-71
2023/03/07 05:18:29;;;;;;;6.15;4.80;;;3.60;99.90;;;;;;4955571;28;20242;-71
2023/03/07 05:20:57;;;;;;;6.45;4.05;;;3.60;99.90;;;;;;4954125;28;20210;-71
2023/03/07 05:23:25;;;;;;;6.57;4.05;;;3.70;99.90;;;;;;4951402;28;20318;-71
2023/03/07 05:25:53;;;;;;;5.53;4.05;;;3.70;99.90;;;;;;4954100;28;20209;-71
2023/03/07 05:28:20;;;;;;;4.93;3.83;;;3.70;99.90;;;;;;4949967;28;20237;-72
2023/03/07 05:30:48;;;;;;;4.35;2.88;;;3.60;99.90;;;;;;4955925;28;20200;-71
2023/03/07 05:33:16;;;;;;;7.82;3.72;;;3.60;99.90;;;;;;4955183;28;20201;-71
2023/03/07 05:35:46;;;;;;;5.40;3.00;;;3.50;99.90;;;;;;4957774;28;20237;-71
2023/03/07 05:38:14;;;;;;;4.57;3.67;;;3.60;99.90;;;;;;4953305;28;20593;-72
2023/03/07 05:40:43;;;;;;;4.30;3.90;;;3.60;99.90;;;;;;4944425;28;20221;-72
2023/03/07 05:43:10;;;;;;;4.18;3.78;;;3.60;99.90;;;;;;4953682;28;20682;-72
2023/03/07 05:45:38;;;;;;;4.22;3.80;;;3.60;99.90;;;;;;4960800;28;20206;-71
2023/03/07 05:48:06;;;;;;;3.97;3.58;;;3.70;99.90;;;;;;4952637;28;20597;-71
2023/03/07 05:50:34;;;;;;;5.07;3.55;;;3.60;99.90;;;;;;4958365;28;20587;-71
2023/03/07 05:53:03;;;;;;;4.88;3.15;;;3.60;99.90;;;;;;4953982;28;20295;-70
2023/03/07 05:55:32;;;;;;;4.50;2.65;;;3.70;99.90;;;;;;4950390;28;20216;-70
2023/03/07 05:58:00;;;;;;;4.80;3.90;;;3.60;99.90;;;;;;4953255;28;20235;-71
2023/03/07 06:00:28;;;;;;;3.28;2.97;;;3.60;99.90;;;;;;4953389;28;20212;-73
2023/03/07 06:02:55;;;;;;;4.25;3.10;;;3.50;99.90;;;;;;4958577;28;20211;-70
2023/03/07 06:05:23;;;;;;;5.45;2.92;;;3.60;99.90;;;;;;4955412;28;20668;-70
2023/03/07 06:07:52;;;;;;;5.35;3.90;;;3.60;99.90;;;;;;4956477;28;20223;-71
2023/03/07 06:10:21;;;;;;;6.85;3.72;;;3.70;99.90;;;;;;4951872;29;20229;-71
2023/03/07 06:12:50;;;;;;;4.25;2.55;;;3.70;99.90;;;;;;4951116;29;20753;-71
2023/03/07 06:15:19;;;;;;;6.10;4.55;;;3.70;99.90;;;;;;4949977;28;20210;-71
2023/03/07 06:17:47;;;;;;;4.93;3.28;;;3.70;99.90;;;;;;4950397;28;20599;-71
2023/03/07 06:20:15;;;;;;;3.20;2.75;;;3.80;99.90;;;;;;4950380;28;20212;-71
2023/03/07 06:22:43;;;;;;;3.63;2.95;;;3.80;99.90;;;;;;4954556;28;20223;-70
2023/03/07 06:25:11;;;;;;;2.50;2.30;;;3.80;99.90;;;;;;4953016;28;20210;-71
2023/03/07 06:27:40;;;;;;;4.25;2.95;;;3.80;99.90;;;;;;4955963;28;20248;-71
2023/03/07 06:30:10;;;;;;;4.85;3.55;;;3.90;99.90;;;;;;4950830;28;20641;-72
2023/03/07 06:32:38;;;;;;;6.60;3.47;;;3.90;99.90;;;;;;4951190;28;20213;-71
2023/03/07 06:35:07;;;;;;;4.18;3.58;;;3.90;99.90;;;;;;4949501;28;20297;-71
2023/03/07 06:37:35;;;;;;;3.47;2.88;;;3.90;99.90;;;;;;4954821;28;20273;-72
2023/03/07 06:40:05;;;;;;;4.25;3.50;;;3.90;99.90;;;;;;4955539;28;20213;-71
2023/03/07 06:42:32;;;;;;;2.92;2.53;;;3.90;99.90;;;;;;4949059;28;20201;-71
2023/03/07 06:45:02;;;;;;;4.25;3.00;;;3.90;99.90;;;;;;4955586;28;20576;-72
2023/03/07 06:47:30;;;;;;;3.30;2.97;;;3.90;99.90;;;;;;4951541;28;20214;-71
2023/03/07 06:49:58;;;;;;;4.82;2.78;;;3.90;99.90;;;;;;4947265;28;20213;-71
2023/03/07 06:52:25;;;;;;;4.32;3.28;;;4.00;99.90;;;;;;4949825;28;20288;-70
2023/03/07 06:54:53;;;;;;;5.57;3.78;;;3.90;99.90;;;;;;4952385;28;20692;-71
2023/03/07 06:57:21;;;;;;;4.22;3.83;;;3.90;99.90;;;;;;4954658;28;20226;-71
2023/03/07 06:59:49;;;;;;;3.17;2.58;;;4.00;99.90;;;;;;4956507;28;20212;-72
2023/03/07 07:02:18;;;;;;;3.63;2.97;;;4.00;99.90;;;;;;4948369;28;20592;-70
2023/03/07 07:04:46;;;;;;;5.63;3.25;;;4.00;99.90;;;;;;4951331;29;20200;-72
2023/03/07 07:07:14;;;;;;;3.17;1.92;;;4.00;99.90;;;;;;4950268;28;20294;-71
2023/03/07 07:09:42;;;;;;;2.45;1.95;;;4.00;99.90;;;;;;4949893;28;20221;-72
2023/03/07 07:12:10;;;;;;;4.28;2.90;;;4.00;99.90;;;;;;4952482;28;20197;-72
2023/03/07 07:14:37;;;;;;;7.22;3.60;;;4.00;99.90;;;;;;4951688;28;20286;-72
2023/03/07 07:17:05;;;;;;;3.63;2.60;;;4.00;99.90;;;;;;4951653;28;20227;-69
2023/03/07 07:19:35;;;;;;;5.55;4.00;;;4.00;99.90;;;;;;4950345;28;20310;-69
2023/03/07 07:22:03;;;;;;;4.80;3.85;;;4.10;99.90;;;;;;4953017;28;20250;-71
2023/03/07 07:24:31;;;;;;;2.45;2.25;;;4.10;99.90;;;;;;4960910;28;20208;-71
2023/03/07 07:26:59;;;;;;;5.45;3.35;;;4.10;99.90;;;;;;4961661;28;20217;-70
2023/03/07 07:29:27;;;;;;;3.25;2.92;;;4.10;99.90;;;;;;4964348;28;20330;-70
2023/03/07 07:31:54;;;;;;;4.78;3.47;;;4.10;99.90;;;;;;4963377;28;20699;-71
2023/03/07 07:34:22;;;;;;;4.13;3.35;;;4.10;99.90;;;;;;4953560;28;20240;-72
2023/03/07 07:36:52;;;;;;;4.95;2.80;;;4.20;99.90;;;;;;4961657;28;20217;-72
2023/03/07 07:39:20;;;;;;;5.50;3.65;;;4.20;99.90;;;;;;4963708;28;20326;-71
2023/03/07 07:41:48;;;;;;;5.40;3.50;;;4.20;99.90;;;;;;4962678;28;20222;-72
2023/03/07 07:44:16;;;;;;;3.15;2.85;;;4.20;99.90;;;;;;4955497;28;20210;-71
2023/03/07 07:46:44;;;;;;;4.32;3.85;;;4.20;99.90;;;;;;4964463;28;20580;-71
2023/03/07 07:49:12;;;;;;;4.07;3.10;;;4.30;99.90;;;;;;4961866;28;20313;-70
2023/03/07 07:51:40;;;;;;;7.05;3.03;;;4.30;99.90;;;;;;4960939;28;20211;-71
2023/03/07 07:54:10;;;;;;;4.60;2.40;;;4.30;99.90;;;;;;4961659;28;20246;-70
2023/03/07 07:56:37;;;;;;;2.67;2.35;;;4.40;99.90;;;;;;4963966;28;20210;-71
2023/03/07 07:59:05;;;;;;;3.67;3.17;;;4.40;99.90;;;;;;4962852;28;20239;-71
2023/03/07 08:01:33;;;;;;;4.18;3.17;;;4.40;99.90;;;;;;4960225;28;20211;-71
2023/03/07 08:04:01;;;;;;;3.72;2.95;;;4.40;99.90;;;;;;4961060;28;20218;-71
2023/03/07 08:06:29;;;;;;;3.30;2.78;;;4.40;99.90;;;;;;4964262;28;20287;-71
2023/03/07 08:08:58;;;;;;;3.20;2.88;;;4.50;99.90;;;;;;4964057;28;20231;-71
2023/03/07 08:11:28;;;;;;;4.85;3.47;;;4.50;99.90;;;;;;4965308;28;20263;-71
2023/03/07 08:13:56;;;;;;;2.75;2.55;;;4.50;99.90;;;;;;4960755;28;20248;-71
2023/03/07 08:16:24;;;;;;;3.63;2.35;;;4.60;99.90;;;;;;4963841;28;20296;-71
2023/03/07 08:18:54;;;;;;;3.70;3.40;;;4.70;99.90;;;;;;4963909;28;20256;-71
2023/03/07 08:21:23;;;;;;;2.67;2.47;;;4.80;99.90;;;;;;4955433;28;20255;-71
2023/03/07 08:23:51;;;;;;;3.05;2.58;;;4.80;99.90;;;;;;4964053;28;20213;-71
2023/03/07 08:26:19;;;;;;;2.53;2.25;;;4.80;99.90;;;;;;4961244;28;20208;-70
2023/03/07 08:28:48;;;;;;;3.53;3.20;;;4.90;99.90;;;;;;4960033;28;20241;-71
2023/03/07 08:31:18;;;;;;;3.95;3.15;;;5.00;99.90;;;;;;4962154;28;20211;-68
2023/03/07 08:33:47;;;;;;;2.15;1.77;;;5.00;99.90;;;;;;4963945;28;20219;-71
2023/03/07 08:36:15;;;;;;;4.55;2.70;;;5.00;99.90;;;;;;4962024;28;20244;-72
2023/03/07 08:38:43;;;;;;;3.05;2.53;;;5.10;99.90;;;;;;4960526;28;20230;-71
2023/03/07 08:41:11;;;;;;;4.05;2.90;;;5.10;99.90;;;;;;4956805;28;20534;-72
2023/03/07 08:43:39;;;;;;;3.78;2.13;;;5.20;99.90;;;;;;4960409;28;20300;-71
2023/03/07 08:46:08;;;;;;;6.22;3.03;;;5.20;99.90;;;;;;4961157;28;20323;-71
2023/03/07 08:48:36;;;;;;;3.63;2.33;;;5.20;99.90;;;;;;4963711;28;20229;-71
2023/03/07 08:51:06;;;;;;;2.90;2.50;;;5.20;99.90;;;;;;4963157;28;20289;-71
2023/03/07 08:53:34;;;;;;;2.30;2.10;;;5.30;99.90;;;;;;4960456;28;20287;-71
2023/03/07 08:56:06;;;;;;;3.50;2.47;;;5.40;99.90;;;;;;4960410;28;20224;-70
2023/03/07 08:58:34;;;;;;;4.75;3.00;;;5.40;99.90;;;;;;4963588;28;20222;-71
2023/03/07 09:01:03;;;;;;;3.90;2.47;;;5.50;99.90;;;;;;4963275;28;20213;-68
2023/03/07 09:03:32;;;;;;;2.30;1.77;;;5.50;99.90;;;;;;4960372;28;20202;-70
2023/03/07 09:06:01;;;;;;;6.93;3.65;;;5.60;99.90;;;;;;4960940;28;20229;-70
2023/03/07 09:08:29;;;;;;;4.00;2.10;;;5.70;99.90;;;;;;4956089;28;20244;-70
2023/03/07 09:11:02;;;;;;;3.05;2.72;;;5.70;99.90;;;;;;4960065;28;20304;-70
2023/03/07 09:13:29;;;;;;;2.50;2.03;;;5.70;99.90;;;;;;4955868;28;20292;-70
2023/03/07 09:16:04;;;;;;;2.80;2.53;;;5.80;99.90;;;;;;4963871;28;20228;-70
2023/03/07 09:18:33;;;;;;;3.88;2.50;;;5.90;99.90;;;;;;4956174;28;20237;-70
2023/03/07 09:21:03;;;;;;;2.13;1.77;;;5.90;99.90;;;;;;4963586;28;20466;-68
2023/03/07 09:23:31;;;;;;;1.92;1.73;;;6.10;99.90;;;;;;4963737;28;20297;-70
2023/03/07 09:25:59;;;;;;;2.17;1.52;;;6.20;99.90;;;;;;4963881;28;20233;-70
2023/03/07 09:28:27;;;;;;;4.10;2.60;;;6.20;99.90;;;;;;4966455;28;20233;-70
2023/03/07 09:30:55;;;;;;;2.78;1.58;;;6.20;99.90;;;;;;4966856;28;20211;-69
2023/03/07 09:33:23;;;;;;;2.08;1.20;;;6.20;99.90;;;;;;4962654;28;20318;-70
2023/03/07 09:35:52;;;;;;;4.13;2.17;;;6.30;99.90;;;;;;4963434;28;20304;-70
2023/03/07 09:38:20;;;;;;;2.28;1.80;;;6.50;99.90;;;;;;4965120;28;20246;-69
2023/03/07 09:40:48;;;;;;;1.92;1.58;;;6.50;99.90;;;;;;4960482;28;20657;-67
2023/03/07 09:43:19;;;;;;;2.40;1.40;;;6.50;99.90;;;;;;4956616;28;20296;-70
2023/03/07 09:45:57;;;;;;;1.60;1.50;;;6.50;99.90;;;;;;4966476;28;20214;-71
2023/03/07 09:49:02;;;;;;;2.67;1.67;;;6.50;99.90;;;;;;4963473;28;20332;-69
2023/03/07 09:51:38;;;;;;;2.13;1.92;;;6.40;99.90;;;;;;4952959;28;20217;-70
2023/03/07 09:54:11;;;;;;;2.20;1.80;;;6.40;99.90;;;;;;4962952;28;20293;-68
2023/03/07 09:56:44;;;;;;;1.50;1.30;;;6.50;99.90;;;;;;4966383;28;20213;-70
2023/03/07 09:59:21;;;;;;;1.25;1.05;;;6.50;99.90;;;;;;4965546;28;20312;-70
2023/03/07 10:01:57;;;;;;;1.70;1.60;;;6.50;99.90;;;;;;4962456;28;20218;-69
2023/03/07 10:04:32;;;;;;;3.63;2.40;;;6.60;99.90;;;;;;4965292;28;20228;-70
2023/03/07 10:07:03;;;;;;;2.65;2.45;;;6.70;99.90;;;;;;4966248;28;20210;-70
2023/03/07 10:09:31;;;;;;;1.52;1.30;;;6.70;99.90;;;;;;4954916;28;20222;-70
2023/03/07 10:12:35;;;;;;;2.30;1.67;;;6.70;99.90;;;;;;4962273;28;20214;-70
2023/03/07 10:15:17;;;;;;;1.55;1.42;;;6.70;99.90;;;;;;4962853;28;20214;-70
2023/03/07 10:18:03;;;;;;;1.95;1.75;;;6.80;99.90;;;;;;4955716;28;20313;-70
2023/03/07 10:20:41;;;;;;;1.40;1.10;;;6.80;99.90;;;;;;4954583;28;20320;-70
2023/03/07 10:23:27;;;;;;;1.95;1.40;;;6.80;99.90;;;;;;4962555;28;20388;-69
2023/03/07 10:26:01;;;;;;;2.53;1.92;;;6.70;99.90;;;;;;4965903;28;20218;-70
2023/03/07 10:28:32;;;;;;;2.35;1.88;;;6.80;99.90;;;;;;4962476;28;20748;-70
2023/03/07 10:31:13;;;;;;;2.17;1.52;;;6.80;99.90;;;;;;4962265;28;20649;-70
2023/03/07 10:33:45;;;;;;;1.92;1.50;;;6.90;99.90;;;;;;4955927;28;20234;-70
2023/03/07 10:36:15;;;;;;;1.55;1.30;;;7.00;99.90;;;;;;4962955;28;20211;-69
2023/03/07 10:38:55;;;;;;;2.58;1.63;;;7.20;99.90;;;;;;4965674;28;20223;-70
2023/03/07 10:41:23;;;;;;;3.10;1.55;;;7.30;99.90;;;;;;4963176;28;20202;-70
2023/03/07 10:43:52;;;;;;;2.03;1.50;;;7.50;99.90;;;;;;4954143;28;20266;-70
2023/03/07 10:46:23;;;;;;;2.42;1.33;;;7.50;99.90;;;;;;4963578;28;20214;-70
2023/03/07 10:48:58;;;;;;;1.35;1.25;;;7.60;99.90;;;;;;4965506;28;20230;-70
2023/03/07 10:51:43;;;;;;;1.65;1.10;;;7.60;99.90;;;;;;4962067;28;20596;-70
2023/03/07 10:54:16;;;;;;;2.30;1.20;;;7.60;99.90;;;;;;4962194;28;20290;-70
2023/03/07 10:57:03;;;;;;;5.13;1.02;;;7.60;99.90;;;;;;4965357;28;20582;-71
2023/03/07 10:59:31;;;;;;;2.72;1.70;;;7.70;99.90;;;;;;4961967;28;20230;-70
2023/03/07 11:02:04;;;;;;;1.90;1.40;;;7.70;99.90;;;;;;4961515;28;20235;-69
2023/03/07 11:04:44;;;;;;;1.33;1.23;;;7.80;99.90;;;;;;4964982;28;20238;-70
2023/03/07 11:07:27;;;;;;;1.98;1.67;;;7.70;99.90;;;;;;4964626;28;20216;-70
2023/03/07 11:09:58;;;;;;;1.30;0.93;;;7.80;99.90;;;;;;4961825;28;20754;-70
2023/03/07 11:12:27;;;;;;;1.30;1.20;;;8.10;99.90;;;;;;4953082;28;20214;-70
2023/03/07 11:14:57;;;;;;;1.75;1.50;;;8.10;99.90;;;;;;4959888;28;20210;-70
2023/03/07 11:17:29;;;;;;;1.45;1.30;;;8.30;99.90;;;;;;4962472;28;20661;-68
2023/03/07 11:19:58;;;;;;;1.88;1.73;;;8.30;99.90;;;;;;4961691;28;20237;-70
2023/03/07 11:22:29;;;;;;;0.70;0.65;;;8.30;99.90;;;;;;4963162;28;20238;-69
2023/03/07 11:25:01;;;;;;;1.17;1.10;;;8.20;99.90;;;;;;4957059;28;20203;-70
2023/03/07 11:27:35;;;;;;;1.67;1.13;;;8.20;99.90;;;;;;4952839;28;20234;-69
2023/03/07 11:30:15;;;;;;;1.52;1.40;;;8.20;99.90;;;;;;4953281;28;20234;-69
2023/03/07 11:32:50;;;;;;;1.67;1.48;;;8.10;99.90;;;;;;4952844;28;20212;-70
2023/03/07 11:35:21;;;;;;;1.88;1.38;;;8.20;99.90;;;;;;4953043;28;20294;-70
2023/03/07 11:38:01;;;;;;;1.90;1.42;;;8.20;99.90;;;;;;4953002;28;20235;-70
2023/03/07 11:40:34;;;;;;;1.10;1.00;;;8.30;99.90;;;;;;4952768;28;20257;-71
2023/03/07 11:43:16;;;;;;;1.92;1.40;;;8.20;99.90;;;;;;4952943;28;20242;-69
2023/03/07 11:45:52;;;;;;;0.70;0.63;;;8.20;99.90;;;;;;4953315;28;20692;-69
2023/03/07 11:48:36;;;;;;;1.70;1.45;;;8.10;99.90;;;;;;4952767;28;20317;-70
2023/03/07 11:51:13;;;;;;;1.92;1.48;;;8.00;99.90;;;;;;4952710;28;20207;-70
2023/03/07 11:53:57;;;;;;;1.45;1.33;;;8.00;99.90;;;;;;4952959;28;20206;-70
2023/03/07 11:56:31;;;;;;;2.22;1.45;;;8.10;99.90;;;;;;4952676;28;20222;-70
2023/03/07 11:59:24;;;;;;;0.73;0.70;;;8.20;99.90;;;;;;4959166;28;20239;-70
2023/03/07 12:01:55;;;;;;;1.75;1.48;;;8.40;99.90;;;;;;4954680;28;20257;-70
2023/03/07 12:04:48;;;;;;;1.42;1.17;;;8.30;99.90;;;;;;4962180;28;20737;-70
2023/03/07 12:07:38;;;;;;;1.25;1.13;;;8.40;99.90;;;;;;4963398;28;20216;-72
2023/03/07 12:10:21;;;;;;;1.58;1.48;;;8.30;99.90;;;;;;4960772;28;20206;-71
2023/03/07 12:13:01;;;;;;;1.45;1.33;;;8.30;99.90;;;;;;4953935;28;20210;-70
2023/03/07 12:15:38;;;;;;;1.40;1.30;;;8.40;99.90;;;;;;4963003;28;20210;-70
2023/03/07 12:18:24;;;;;;;0.85;0.85;;;8.40;99.90;;;;;;4964077;28;20226;-70
2023/03/07 12:21:03;;;;;;;0.90;0.77;;;8.50;99.90;;;;;;4963481;28;20254;-69
2023/03/07 12:23:37;;;;;;;1.02;0.80;;;8.50;99.90;;;;;;4961271;28;20244;-70
2023/03/07 12:26:13;;;;;;;1.25;0.60;;;8.70;99.90;;;;;;4960649;28;20207;-71
2023/03/07 12:28:48;;;;;;;1.10;0.90;;;8.70;99.90;;;;;;4952753;28;20320;-70
2023/03/07 12:31:21;;;;;;;1.17;1.02;;;8.60;99.90;;;;;;4960547;28;20214;-68
2023/03/07 12:33:56;;;;;;;1.05;0.80;;;8.70;99.90;;;;;;4964040;28;20253;-70
2023/03/07 12:36:30;;;;;;;1.30;0.95;;;8.60;99.90;;;;;;4962356;28;20209;-71
2023/03/07 12:39:05;;;;;;;1.15;1.05;;;8.50;99.90;;;;;;4960536;28;20244;-71
2023/03/07 12:41:47;;;;;;;0.90;0.57;;;8.40;99.90;;;;;;4964346;28;20256;-71
2023/03/07 12:44:29;;;;;;;2.65;1.42;;;8.40;99.90;;;;;;4967279;28;20213;-70
2023/03/07 12:47:01;;;;;;;1.25;1.15;;;8.20;99.90;;;;;;4964416;28;20238;-70
2023/03/07 12:49:39;;;;;;;1.52;1.02;;;8.20;99.90;;;;;;4965830;28;20309;-71
2023/03/07 12:52:29;;;;;;;1.90;1.20;;;8.20;99.90;;;;;;4967104;28;20210;-69
2023/03/07 12:55:04;;;;;;;2.17;1.45;;;8.20;99.90;;;;;;4958037;28;20583;-70
2023/03/07 12:57:36;;;;;;;1.15;0.88;;;8.20;99.90;;;;;;4957826;28;20211;-71
2023/03/07 13:00:10;;;;;;;1.23;1.13;;;8.10;99.90;;;;;;4967369;28;20586;-70
2023/03/07 13:02:43;;;;;;;3.20;1.58;;;8.20;99.90;;;;;;4964110;28;20218;-71
2023/03/07 13:05:19;;;;;;;1.20;1.10;;;8.20;99.90;;;;;;4964073;28;20241;-70
2023/03/07 13:07:49;;;;;;;1.38;1.05;;;8.10;99.90;;;;;;4956871;28;20245;-70
2023/03/07 13:10:19;;;;;;;1.42;1.10;;;8.20;99.90;;;;;;4963774;28;20667;-69
2023/03/07 13:12:48;;;;;;;1.05;0.93;;;8.30;99.90;;;;;;4967254;28;20210;-70
2023/03/07 13:15:47;;;;;;;1.50;1.10;;;8.40;99.90;;;;;;4967222;28;20217;-70